createdAt,value
2022-08-26T00:01:01.589Z,96665.00
2022-08-26T00:03:28.678Z,96664.00
2022-08-26T00:05:55.786Z,96667.00
2022-08-26T00:08:23.521Z,96666.00
2022-08-26T00:10:50.617Z,96663.00
2022-08-26T00:13:19.496Z,96667.00
2022-08-26T00:15:46.991Z,96678.00
2022-08-26T00:18:21.782Z,96676.00
2022-08-26T00:20:49.937Z,96681.00
2022-08-26T00:23:17.711Z,96681.00
2022-08-26T00:25:44.985Z,96675.00
2022-08-26T00:28:12.218Z,96675.00
2022-08-26T00:30:39.854Z,96686.00
2022-08-26T00:33:08.157Z,96682.00
2022-08-26T00:35:35.385Z,96682.00
2022-08-26T00:38:03.435Z,96679.00
2022-08-26T00:40:35.300Z,96680.00
2022-08-26T00:43:02.838Z,96683.00
2022-08-26T00:45:38.500Z,96680.00
2022-08-26T00:48:05.642Z,96680.00
2022-08-26T00:50:33.770Z,96681.00
2022-08-26T00:53:01.503Z,96676.00
2022-08-26T00:55:46.512Z,96676.00
2022-08-26T00:58:15.825Z,96672.00
2022-08-26T01:00:43.187Z,96680.00
2022-08-26T01:03:12.803Z,96686.00
2022-08-26T01:05:41.477Z,96684.00
2022-08-26T01:08:08.749Z,96683.00
2022-08-26T01:10:39.308Z,96681.00
2022-08-26T01:13:20.086Z,96681.00
2022-08-26T01:15:53.872Z,96686.00
2022-08-26T01:18:21.427Z,96692.00
2022-08-26T01:20:48.485Z,96679.00
2022-08-26T01:23:15.602Z,96683.00
2022-08-26T01:25:44.457Z,96686.00
2022-08-26T01:28:16.500Z,96685.00
2022-08-26T01:30:44.693Z,96683.00
2022-08-26T01:33:12.739Z,96690.00
2022-08-26T01:35:57.023Z,96682.00
2022-08-26T01:38:49.285Z,96689.00
2022-08-26T01:41:54.232Z,96685.00
2022-08-26T01:45:26.196Z,96682.00
2022-08-26T01:48:30.659Z,96690.00
2022-08-26T01:51:14.634Z,96691.00
2022-08-26T01:53:55.946Z,96696.00
2022-08-26T01:56:52.135Z,96698.00
2022-08-26T01:59:31.359Z,96701.00
2022-08-26T02:02:20.569Z,96702.00
2022-08-26T02:04:58.361Z,96708.00
2022-08-26T02:07:29.828Z,96709.00
2022-08-26T02:09:57.916Z,96714.00
2022-08-26T02:12:32.087Z,96711.00
2022-08-26T02:15:06.228Z,96713.00
2022-08-26T02:17:34.680Z,96714.00
2022-08-26T02:20:14.838Z,96705.00
2022-08-26T02:22:45.077Z,96722.00
2022-08-26T02:25:14.798Z,96716.00
2022-08-26T02:27:44.265Z,96711.00
2022-08-26T02:30:15.722Z,96718.00
2022-08-26T02:32:44.379Z,96715.00
2022-08-26T02:35:12.965Z,96722.00
2022-08-26T02:37:41.898Z,96717.00
2022-08-26T02:40:09.788Z,96717.00
2022-08-26T02:42:37.607Z,96713.00
2022-08-26T02:45:05.214Z,96711.00
2022-08-26T02:47:34.261Z,96702.00
2022-08-26T02:50:01.925Z,96707.00
2022-08-26T02:52:29.033Z,96703.00
2022-08-26T02:54:56.138Z,96707.00
2022-08-26T02:57:23.263Z,96701.00
2022-08-26T02:59:51.475Z,96698.00
2022-08-26T03:02:19.007Z,96694.00
2022-08-26T03:04:57.725Z,96700.00
2022-08-26T03:07:29.717Z,96701.00
2022-08-26T03:09:57.260Z,96694.00
2022-08-26T03:12:25.595Z,96696.00
2022-08-26T03:14:53.092Z,96694.00
2022-08-26T03:17:20.991Z,96700.00
2022-08-26T03:19:51.758Z,96700.00
2022-08-26T03:22:21.412Z,96692.00
2022-08-26T03:24:49.977Z,96694.00
2022-08-26T03:27:17.121Z,96690.00
2022-08-26T03:30:03.130Z,96685.00
2022-08-26T03:32:30.315Z,96688.00
2022-08-26T03:34:57.846Z,96690.00
2022-08-26T03:37:25.385Z,96691.00
2022-08-26T03:39:53.046Z,96691.00
2022-08-26T03:42:22.078Z,96691.00
2022-08-26T03:44:49.503Z,96693.00
2022-08-26T03:47:17.115Z,96692.00
2022-08-26T03:49:44.322Z,96694.00
2022-08-26T03:52:12.339Z,96689.00
2022-08-26T03:54:40.490Z,96679.00
2022-08-26T03:57:10.632Z,96686.00
2022-08-26T03:59:37.733Z,96693.00
2022-08-26T04:02:11.480Z,96691.00
2022-08-26T04:04:38.994Z,96684.00
2022-08-26T04:07:06.106Z,96689.00
2022-08-26T04:09:35.125Z,96682.00
2022-08-26T04:12:03.713Z,96693.00
2022-08-26T04:14:32.107Z,96689.00
2022-08-26T04:16:59.413Z,96688.00
2022-08-26T04:19:26.514Z,96683.00
2022-08-26T04:21:53.786Z,96690.00
2022-08-26T04:24:21.857Z,96689.00
2022-08-26T04:26:48.996Z,96690.00
2022-08-26T04:29:18.099Z,96698.00
2022-08-26T04:31:46.035Z,96689.00
2022-08-26T04:34:14.037Z,96692.00
2022-08-26T04:36:41.982Z,96687.00
2022-08-26T04:39:11.989Z,96691.00
2022-08-26T04:41:39.371Z,96693.00
2022-08-26T04:44:07.704Z,96693.00
2022-08-26T04:46:35.185Z,96697.00
2022-08-26T04:49:08.410Z,96697.00
2022-08-26T04:51:36.004Z,96701.00
2022-08-26T04:54:06.754Z,96701.00
2022-08-26T04:56:37.927Z,96700.00
2022-08-26T04:59:06.218Z,96701.00
2022-08-26T05:01:34.896Z,96707.00
2022-08-26T05:04:08.237Z,96711.00
2022-08-26T05:06:37.153Z,96702.00
2022-08-26T05:09:04.885Z,96707.00
2022-08-26T05:11:32.213Z,96710.00
2022-08-26T05:14:02.348Z,96714.00
2022-08-26T05:16:30.375Z,96710.00
2022-08-26T05:18:57.614Z,96710.00
2022-08-26T05:21:26.134Z,96714.00
2022-08-26T05:23:57.145Z,96720.00
2022-08-26T05:26:25.085Z,96714.00
2022-08-26T05:28:54.781Z,96719.00
2022-08-26T05:31:23.936Z,96715.00
2022-08-26T05:33:51.131Z,96714.00
2022-08-26T05:36:19.874Z,96714.00
2022-08-26T05:38:49.022Z,96716.00
2022-08-26T05:41:20.566Z,96714.00
2022-08-26T05:43:47.753Z,96714.00
2022-08-26T05:46:16.125Z,96718.00
2022-08-26T05:48:44.303Z,96712.00
2022-08-26T05:51:11.750Z,96722.00
2022-08-26T05:53:40.038Z,96716.00
2022-08-26T05:56:11.391Z,96715.00
2022-08-26T05:58:39.435Z,96720.00
2022-08-26T06:01:12.111Z,96718.00
2022-08-26T06:03:40.009Z,96719.00
2022-08-26T06:06:09.769Z,96719.00
2022-08-26T06:08:37.969Z,96718.00
2022-08-26T06:11:07.204Z,96717.00
2022-08-26T06:13:35.014Z,96721.00
2022-08-26T06:16:03.898Z,96725.00
2022-08-26T06:18:34.872Z,96727.00
2022-08-26T06:21:22.870Z,96721.00
2022-08-26T06:24:09.143Z,96724.00
2022-08-26T06:26:36.687Z,96721.00
2022-08-26T06:29:04.229Z,96722.00
2022-08-26T06:31:35.268Z,96726.00
2022-08-26T06:34:06.175Z,96731.00
2022-08-26T06:36:35.838Z,96733.00
2022-08-26T06:39:06.471Z,96739.00
2022-08-26T06:41:34.427Z,96739.00
2022-08-26T06:44:02.445Z,96733.00
2022-08-26T06:46:36.809Z,96747.00
2022-08-26T06:49:04.220Z,96743.00
2022-08-26T06:51:33.145Z,96746.00
2022-08-26T06:54:15.915Z,96741.00
2022-08-26T06:56:43.245Z,96745.00
2022-08-26T06:59:13.339Z,96743.00
2022-08-26T07:02:28.606Z,96740.00
2022-08-26T07:07:46.839Z,96741.00
2022-08-26T07:10:16.565Z,96746.00
2022-08-26T07:12:43.747Z,96747.00
2022-08-26T07:15:16.579Z,96753.00
2022-08-26T07:18:01.111Z,96747.00
2022-08-26T07:20:50.205Z,96742.00
2022-08-26T07:23:17.360Z,96749.00
2022-08-26T07:25:44.462Z,96750.00
2022-08-26T07:28:12.632Z,96755.00
2022-08-26T07:30:40.831Z,96745.00
2022-08-26T07:33:08.124Z,96748.00
2022-08-26T07:35:35.518Z,96748.00
2022-08-26T07:38:02.766Z,96748.00
2022-08-26T07:40:30.600Z,96746.00
2022-08-26T07:42:57.903Z,96748.00
2022-08-26T07:45:28.531Z,96749.00
2022-08-26T07:47:55.816Z,96749.00
2022-08-26T07:50:34.160Z,96754.00
2022-08-26T07:53:10.814Z,96753.00
2022-08-26T07:55:38.124Z,96762.00
2022-08-26T07:58:20.586Z,96768.00
2022-08-26T08:01:07.455Z,96760.00
2022-08-26T08:03:38.845Z,96753.00
2022-08-26T08:06:06.983Z,96754.00
2022-08-26T08:08:35.430Z,96756.00
2022-08-26T08:11:02.569Z,96753.00
2022-08-26T08:13:29.703Z,96760.00
2022-08-26T08:15:56.807Z,96759.00
2022-08-26T08:18:23.925Z,96764.00
2022-08-26T08:20:59.145Z,96764.00
2022-08-26T08:23:37.384Z,96763.00
2022-08-26T08:26:11.004Z,96761.00
2022-08-26T08:28:47.937Z,96758.00
2022-08-26T08:31:54.391Z,96764.00
2022-08-26T08:34:13.024Z,96764.00
2022-08-26T08:36:40.142Z,96774.00
2022-08-26T08:39:08.700Z,96773.00
2022-08-26T08:41:36.345Z,96776.00
2022-08-26T08:44:03.442Z,96785.00
2022-08-26T08:46:30.628Z,96780.00
2022-08-26T08:48:59.732Z,96778.00
2022-08-26T08:51:29.718Z,96778.00
2022-08-26T08:53:56.805Z,96775.00
2022-08-26T08:56:44.011Z,96779.00
2022-08-26T08:59:17.080Z,96780.00
2022-08-26T09:02:02.301Z,96780.00
2022-08-26T09:05:04.970Z,96773.00
2022-08-26T09:07:43.447Z,96777.00
2022-08-26T09:10:33.116Z,96771.00
2022-08-26T09:13:03.533Z,96776.00
2022-08-26T09:15:52.669Z,96776.00
2022-08-26T09:18:39.207Z,96778.00
2022-08-26T09:21:10.733Z,96772.00
2022-08-26T09:23:40.264Z,96776.00
2022-08-26T09:26:14.931Z,96773.00
2022-08-26T09:28:42.787Z,96776.00
2022-08-26T09:31:11.684Z,96772.00
2022-08-26T09:33:40.105Z,96768.00
2022-08-26T09:36:37.788Z,96775.00
2022-08-26T09:39:12.902Z,96772.00
2022-08-26T09:41:40.022Z,96772.00
2022-08-26T09:44:14.775Z,96767.00
2022-08-26T09:46:44.583Z,96770.00
2022-08-26T09:49:35.834Z,96762.00
2022-08-26T09:52:04.942Z,96762.00
2022-08-26T09:54:33.485Z,96759.00
2022-08-26T09:57:16.155Z,96758.00
2022-08-26T09:59:43.474Z,96751.00
2022-08-26T10:02:21.205Z,96754.00
2022-08-26T10:04:51.993Z,96741.00
2022-08-26T10:07:33.778Z,96743.00
2022-08-26T10:10:04.262Z,96745.00
2022-08-26T10:12:31.983Z,96739.00
2022-08-26T10:15:00.262Z,96740.00
2022-08-26T10:17:41.324Z,96729.00
2022-08-26T10:20:23.394Z,96741.00
2022-08-26T10:22:51.115Z,96729.00
2022-08-26T10:25:20.918Z,96742.00
2022-08-26T10:28:03.073Z,96739.00
2022-08-26T10:30:32.048Z,96733.00
2022-08-26T10:33:04.297Z,96721.00
2022-08-26T10:35:31.440Z,96721.00
2022-08-26T10:38:00.555Z,96716.00
2022-08-26T10:40:36.956Z,96714.00
2022-08-26T10:43:20.561Z,96716.00
2022-08-26T10:45:50.544Z,96721.00
2022-08-26T10:48:22.803Z,96726.00
2022-08-26T10:50:50.329Z,96719.00
2022-08-26T10:53:25.361Z,96722.00
2022-08-26T10:56:18.785Z,96717.00
2022-08-26T10:58:51.452Z,96716.00
2022-08-26T11:01:43.471Z,96714.00
2022-08-26T11:04:29.164Z,96701.00
2022-08-26T11:07:15.050Z,96697.00
2022-08-26T11:09:46.093Z,96692.00
2022-08-26T11:12:39.362Z,96692.00
2022-08-26T11:15:09.766Z,96691.00
2022-08-26T11:17:46.314Z,96701.00
2022-08-26T11:20:22.641Z,96696.00
2022-08-26T11:22:51.409Z,96690.00
2022-08-26T11:25:19.266Z,96686.00
2022-08-26T11:27:52.546Z,96688.00
2022-08-26T11:30:20.606Z,96682.00
2022-08-26T11:32:49.442Z,96695.00
2022-08-26T11:35:17.137Z,96698.00
2022-08-26T11:37:47.932Z,96691.00
2022-08-26T11:40:17.830Z,96693.00
2022-08-26T11:42:50.673Z,96689.00
2022-08-26T11:45:28.281Z,96693.00
2022-08-26T11:47:55.484Z,96694.00
2022-08-26T11:50:25.929Z,96695.00
2022-08-26T11:52:56.349Z,96699.00
2022-08-26T11:55:24.473Z,96701.00
2022-08-26T11:57:52.892Z,96694.00
2022-08-26T12:00:26.916Z,96696.00
2022-08-26T12:02:55.566Z,96696.00
2022-08-26T12:05:30.927Z,96691.00
2022-08-26T12:07:59.737Z,96693.00
2022-08-26T12:10:29.918Z,96700.00
2022-08-26T12:12:58.615Z,96703.00
2022-08-26T12:15:26.437Z,96691.00
2022-08-26T12:17:56.766Z,96686.00
2022-08-26T12:20:26.852Z,96679.00
2022-08-26T12:22:53.983Z,96682.00
2022-08-26T12:25:22.418Z,96680.00
2022-08-26T12:27:53.571Z,96678.00
2022-08-26T12:30:22.541Z,96669.00
2022-08-26T12:32:57.486Z,96678.00
2022-08-26T12:35:25.571Z,96668.00
2022-08-26T12:37:53.370Z,96669.00
2022-08-26T12:40:35.270Z,96666.00
2022-08-26T12:43:04.919Z,96667.00
2022-08-26T12:45:33.300Z,96670.00
2022-08-26T12:48:06.004Z,96679.00
2022-08-26T12:50:37.517Z,96680.00
2022-08-26T12:59:27.333Z,96681.00
2022-08-26T13:01:59.263Z,96681.00
2022-08-26T13:04:50.983Z,96691.00
2022-08-26T13:07:30.831Z,96688.00
2022-08-26T13:10:06.134Z,96684.00
2022-08-26T13:12:43.535Z,96676.00
2022-08-26T13:21:37.671Z,96654.00
2022-08-26T13:24:20.192Z,96645.00
2022-08-26T13:26:52.224Z,96646.00
2022-08-26T13:29:23.890Z,96646.00
2022-08-26T13:31:52.629Z,96651.00
2022-08-26T13:34:20.872Z,96641.00
2022-08-26T13:36:49.504Z,96648.00
2022-08-26T13:39:17.315Z,96647.00
2022-08-26T13:41:44.574Z,96635.00
2022-08-26T13:44:11.730Z,96647.00
2022-08-26T13:46:39.021Z,96654.00
2022-08-26T13:49:17.183Z,96649.00
2022-08-26T13:52:01.953Z,96647.00
2022-08-26T13:54:39.611Z,96640.00
2022-08-26T13:57:17.272Z,96629.00
2022-08-26T14:02:47.787Z,96639.00
2022-08-26T14:05:32.769Z,96623.00
2022-08-26T14:08:10.628Z,96626.00
2022-08-26T14:11:13.409Z,96615.00
2022-08-26T14:13:40.619Z,96622.00
2022-08-26T14:16:08.766Z,96616.00
2022-08-26T14:18:41.486Z,96617.00
2022-08-26T14:21:09.194Z,96617.00
2022-08-26T14:23:36.434Z,96610.00
2022-08-26T14:26:08.041Z,96612.00
2022-08-26T14:28:35.412Z,96604.00
2022-08-26T14:31:02.723Z,96614.00
2022-08-26T14:33:32.442Z,96618.00
2022-08-26T14:36:19.914Z,96623.00
2022-08-26T14:38:47.039Z,96616.00
2022-08-26T14:41:14.135Z,96618.00
2022-08-26T14:43:42.330Z,96607.00
2022-08-26T14:46:09.623Z,96609.00
2022-08-26T14:48:36.737Z,96612.00
2022-08-26T14:51:05.263Z,96605.00
2022-08-26T14:53:50.968Z,96598.00
2022-08-26T14:56:18.067Z,96608.00
2022-08-26T14:58:45.853Z,96619.00
2022-08-26T15:01:13.055Z,96616.00
2022-08-26T15:03:40.161Z,96621.00
2022-08-26T15:06:08.394Z,96632.00
2022-08-26T15:08:36.648Z,96620.00
2022-08-26T15:11:03.915Z,96635.00
2022-08-26T15:13:31.141Z,96640.00
2022-08-26T15:15:58.289Z,96637.00
2022-08-26T15:18:25.417Z,96650.00
2022-08-26T15:20:52.750Z,96674.00
2022-08-26T15:23:19.862Z,96682.00
2022-08-26T15:25:48.471Z,96690.00
2022-08-26T15:28:15.637Z,96687.00
2022-08-26T15:30:43.091Z,96676.00
2022-08-26T15:33:15.016Z,96665.00
2022-08-26T15:35:43.104Z,96674.00
2022-08-26T15:38:10.940Z,96664.00
2022-08-26T15:40:38.304Z,96666.00
2022-08-26T15:43:25.484Z,96651.00
2022-08-26T15:45:54.119Z,96645.00
2022-08-26T15:48:21.957Z,96646.00
2022-08-26T15:50:50.203Z,96649.00
2022-08-26T15:53:17.363Z,96652.00
2022-08-26T15:55:44.664Z,96664.00
2022-08-26T15:58:11.785Z,96666.00
2022-08-26T16:00:40.059Z,96669.00
2022-08-26T16:03:07.447Z,96650.00
2022-08-26T16:05:38.340Z,96655.00
2022-08-26T16:08:06.310Z,96649.00
2022-08-26T16:10:34.154Z,96641.00
2022-08-26T16:13:10.433Z,96635.00
2022-08-26T16:15:42.469Z,96626.00
2022-08-26T16:18:10.647Z,96623.00
2022-08-26T16:20:38.226Z,96627.00
2022-08-26T16:23:23.630Z,96632.00
2022-08-26T16:26:01.624Z,96643.00
2022-08-26T16:28:51.114Z,96647.00
2022-08-26T16:31:26.524Z,96653.00
2022-08-26T16:33:54.515Z,96655.00
2022-08-26T16:36:33.358Z,96656.00
2022-08-26T16:39:01.026Z,96649.00
2022-08-26T16:41:47.468Z,96649.00
2022-08-26T16:44:14.575Z,96652.00
2022-08-26T16:46:41.782Z,96643.00
2022-08-26T16:49:08.929Z,96652.00
2022-08-26T16:51:37.819Z,96650.00
2022-08-26T16:54:05.745Z,96650.00
2022-08-26T16:56:34.691Z,96653.00
2022-08-26T16:59:02.759Z,96662.00
2022-08-26T17:01:29.989Z,96678.00
2022-08-26T17:03:57.198Z,96676.00
2022-08-26T17:06:24.371Z,96670.00
2022-08-26T17:08:52.292Z,96667.00
2022-08-26T17:11:19.669Z,96672.00
2022-08-26T17:13:46.761Z,96673.00
2022-08-26T17:16:14.003Z,96674.00
2022-08-26T17:18:41.214Z,96667.00
2022-08-26T17:21:09.366Z,96677.00
2022-08-26T17:23:36.786Z,96678.00
2022-08-26T17:26:03.988Z,96682.00
2022-08-26T17:28:31.917Z,96678.00
2022-08-26T17:30:59.249Z,96682.00
2022-08-26T17:33:26.410Z,96677.00
2022-08-26T17:35:53.792Z,96678.00
2022-08-26T17:38:21.188Z,96665.00
2022-08-26T17:40:48.450Z,96671.00
2022-08-26T17:43:15.571Z,96661.00
2022-08-26T17:45:43.267Z,96677.00
2022-08-26T17:48:11.168Z,96677.00
2022-08-26T17:50:39.293Z,96690.00
2022-08-26T17:53:06.590Z,96695.00
2022-08-26T17:55:33.806Z,96694.00
2022-08-26T17:58:00.932Z,96693.00
2022-08-26T18:00:31.064Z,96700.00
2022-08-26T18:02:58.184Z,96704.00
2022-08-26T18:05:25.307Z,96704.00
2022-08-26T18:07:52.437Z,96708.00
2022-08-26T18:10:20.168Z,96705.00
2022-08-26T18:12:47.506Z,96706.00
2022-08-26T18:15:15.324Z,96710.00
2022-08-26T18:17:42.736Z,96717.00
2022-08-26T18:20:11.422Z,96725.00
2022-08-26T18:22:38.551Z,96739.00
2022-08-26T18:25:06.252Z,96748.00
2022-08-26T18:27:35.502Z,96780.00
2022-08-26T18:30:03.864Z,96798.00
2022-08-26T18:32:30.982Z,96821.00
2022-08-26T18:34:58.089Z,96797.00
2022-08-26T18:37:27.975Z,96808.00
2022-08-26T18:39:59.331Z,96808.00
2022-08-26T18:42:26.610Z,96771.00
2022-08-26T18:44:53.702Z,96773.00
2022-08-26T18:47:20.858Z,96772.00
2022-08-26T18:49:48.550Z,96770.00
2022-08-26T18:52:15.651Z,96774.00
2022-08-26T18:54:42.991Z,96768.00
2022-08-26T18:57:10.378Z,96761.00
2022-08-26T18:59:37.613Z,96759.00
2022-08-26T19:02:05.079Z,96748.00
2022-08-26T19:04:32.225Z,96754.00
2022-08-26T19:06:59.446Z,96743.00
2022-08-26T19:09:26.598Z,96735.00
2022-08-26T19:14:28.447Z,96741.00
2022-08-26T19:16:55.733Z,96756.00
2022-08-26T19:19:26.217Z,96763.00
2022-08-26T19:21:53.370Z,96777.00
2022-08-26T19:24:21.025Z,96783.00
2022-08-26T19:26:58.980Z,96793.00
2022-08-26T19:29:27.862Z,96792.00
2022-08-26T19:31:54.979Z,96794.00
2022-08-26T19:34:30.378Z,96789.00
2022-08-26T19:37:14.178Z,96789.00
2022-08-26T19:42:31.774Z,96798.00
2022-08-26T19:45:07.985Z,96815.00
2022-08-26T19:47:47.260Z,96821.00
2022-08-26T19:50:15.061Z,96833.00
2022-08-26T19:52:42.438Z,96848.00
2022-08-26T19:55:10.235Z,96852.00
2022-08-26T19:57:38.373Z,96852.00
2022-08-26T20:00:10.828Z,96851.00
2022-08-26T20:02:38.188Z,96856.00
2022-08-26T20:05:05.934Z,96862.00
2022-08-26T20:07:33.208Z,96865.00
2022-08-26T20:10:00.429Z,96865.00
2022-08-26T20:12:27.807Z,96855.00
2022-08-26T20:14:55.054Z,96857.00
2022-08-26T20:17:22.224Z,96871.00
2022-08-26T20:20:26.882Z,96866.00
2022-08-26T20:22:55.504Z,96859.00
2022-08-26T20:25:22.680Z,96850.00
2022-08-26T20:27:49.811Z,96846.00
2022-08-26T20:30:17.109Z,96850.00
2022-08-26T20:32:44.235Z,96841.00
2022-08-26T20:35:12.434Z,96832.00
2022-08-26T20:37:40.011Z,96844.00
2022-08-26T20:40:09.035Z,96843.00
2022-08-26T20:42:36.289Z,96851.00
2022-08-26T20:45:04.287Z,96849.00
2022-08-26T20:47:31.583Z,96845.00
2022-08-26T20:49:58.723Z,96841.00
2022-08-26T20:52:25.875Z,96842.00
2022-08-26T20:54:52.967Z,96833.00
2022-08-26T20:57:22.176Z,96828.00
2022-08-26T20:59:49.261Z,96820.00
2022-08-26T21:02:16.365Z,96817.00
2022-08-26T21:04:43.703Z,96819.00
2022-08-26T21:07:10.859Z,96805.00
2022-08-26T21:09:37.958Z,96797.00
2022-08-26T21:12:05.530Z,96796.00
2022-08-26T21:14:32.645Z,96788.00
2022-08-26T21:16:59.829Z,96787.00
2022-08-26T21:19:26.959Z,96784.00
2022-08-26T21:21:54.101Z,96784.00
2022-08-26T21:24:21.233Z,96789.00
2022-08-26T21:26:48.412Z,96793.00
2022-08-26T21:29:15.543Z,96801.00
2022-08-26T21:31:46.399Z,96794.00
2022-08-26T21:34:14.784Z,96796.00
2022-08-26T21:36:41.902Z,96798.00
2022-08-26T21:39:11.817Z,96798.00
2022-08-26T21:41:39.933Z,96803.00
2022-08-26T21:44:07.329Z,96797.00
2022-08-26T21:46:37.099Z,96806.00
2022-08-26T21:49:05.817Z,96804.00
2022-08-26T21:51:34.105Z,96809.00
2022-08-26T21:54:01.554Z,96812.00
2022-08-26T21:56:29.446Z,96813.00
2022-08-26T21:58:56.703Z,96813.00
2022-08-26T22:01:24.559Z,96810.00
2022-08-26T22:03:52.562Z,96811.00
2022-08-26T22:06:23.802Z,96815.00
2022-08-26T22:08:51.230Z,96818.00
2022-08-26T22:11:18.990Z,96824.00
2022-08-26T22:13:46.668Z,96829.00
2022-08-26T22:16:14.171Z,96840.00
2022-08-26T22:18:43.728Z,96833.00
2022-08-26T22:21:12.588Z,96832.00
2022-08-26T22:23:39.534Z,96831.00
2022-08-26T22:26:07.529Z,96835.00
2022-08-26T22:28:34.840Z,96840.00
2022-08-26T22:31:01.911Z,96838.00
2022-08-26T22:33:28.959Z,96837.00
2022-08-26T22:35:55.901Z,96836.00
2022-08-26T22:38:23.780Z,96838.00
2022-08-26T22:40:56.035Z,96835.00
2022-08-26T22:43:27.568Z,96837.00
2022-08-26T22:45:55.340Z,96838.00
2022-08-26T22:48:23.702Z,96845.00
2022-08-26T22:50:51.182Z,96848.00
2022-08-26T22:53:18.396Z,96842.00
2022-08-26T22:55:45.582Z,96847.00
2022-08-26T22:58:14.480Z,96851.00
2022-08-26T23:00:42.840Z,96853.00
2022-08-26T23:03:11.294Z,96854.00
2022-08-26T23:05:39.265Z,96857.00
2022-08-26T23:08:07.059Z,96850.00
2022-08-26T23:10:33.810Z,96852.00
2022-08-26T23:13:01.719Z,96849.00
2022-08-26T23:15:28.416Z,96852.00
2022-08-26T23:17:58.337Z,96849.00
2022-08-26T23:20:27.191Z,96853.00
2022-08-26T23:22:54.561Z,96837.00
2022-08-26T23:25:21.814Z,96839.00
2022-08-26T23:27:48.887Z,96839.00
2022-08-26T23:30:19.202Z,96835.00
2022-08-26T23:32:46.451Z,96830.00
2022-08-26T23:35:14.321Z,96830.00
2022-08-26T23:37:44.043Z,96829.00
2022-08-26T23:40:17.481Z,96837.00
2022-08-26T23:42:44.312Z,96829.00
2022-08-26T23:45:12.910Z,96831.00
2022-08-26T23:47:39.740Z,96832.00
2022-08-26T23:50:07.036Z,96833.00
2022-08-26T23:52:52.514Z,96831.00
2022-08-26T23:55:19.266Z,96826.00
2022-08-26T23:57:45.975Z,96838.00
